Driver Category
Driver Brief Information
title:

Dell All-in-One Printer Driver

Vendor:Dell
Category:Printer
License:Driver
OS: Windows 2000/XP
Version: v.GC 3B A00
File Size: 39.19 Mb
Release: 15 Feb 2006
Update: 7 Jul 2008
Filename: r117711.exe
Download Instruction
Brand:Dell, Product:Printer, Model: 810, Driver: v.GC 3B A00, OS: Windows 2000/XP. Dell All-in-One Printer 810 Driver v.GC 3B A00 Windows 2000/XP was collected from Dell official site for Dell Printer. In order to ensure the right driver download, Official driver links from Dell are listed at first. If the official driver can not be downloaded, a copy of official driver can be provided at local server download.opendrivers.com, download1.opendrivers.com, or dl2.opendrivers.com. Besides, Both the driver developer's home page and driver download and support page be provided as well in my Dell page.
Official Driver Download
Sponsored links
Files in Driver Package
   Date      Time    Attr         Size   Compressed  Name
------------------- ----- ------------ ------------  ------------------------
2006-01-03 12:53:14 D....            0            0  apps
2006-01-03 12:53:22 D....            0            0  apps/aioc
2005-08-12 16:47:10 ....A         9433         2251  apps/aioc/aioc_app.ini
2005-11-23 08:40:46 ....A       178035       170836  apps/aioc/DLCGactl.dl_
2005-11-23 08:38:14 ....A       112433       106710  apps/aioc/DLCGafcn.dl_
2005-11-23 08:44:30 ....A       245886       237481  apps/aioc/DLCGaiox.ex_
2005-11-23 08:42:50 ....A        64780        61154  apps/aioc/DLCGatg.dl_
2005-11-23 08:45:34 ....A        55583        53245  apps/aioc/DLCGatw.dl_
2005-11-23 08:37:24 ....A       125268       120424  apps/aioc/DLCGautl.dl_
2005-08-26 14:44:00 ....A        65536        20446  apps/aioc/DLCGcfg.dll
2005-07-05 09:32:24 ....A        34403        32839  apps/aioc/dlcgcnv4.dl_
2005-10-28 07:41:24 ....A       355344       340421  apps/aioc/dlcgcomc.dl_
2005-10-28 16:38:24 ....A       219224       209472  apps/aioc/DLCGcomx.dl_
2005-10-21 10:38:46 ....A       150373       144499  apps/aioc/DLCGdds.dl_
2005-07-11 09:36:32 ....A        62061        59095  apps/aioc/dlcgdrec.dl_
2005-10-21 10:38:42 ....A       177721       171933  apps/aioc/DLCGdrs.dl_
2005-08-24 10:48:36 ....A       559059       534942  apps/aioc/DLCGgf.dl_
2005-10-28 07:42:00 ....A        69659        66759  apps/aioc/dlcgpplc.dl_
2005-10-28 07:40:58 ....A        55063        51776  apps/aioc/dlcgprox.dl_
2005-07-12 09:27:32 ....A         5519         4933  apps/aioc/DLCGrpt.gd_
2005-10-21 10:38:50 ....A       122119       117505  apps/aioc/DLCGscw.dl_
2005-10-10 09:34:50 ....A       254293       175693  apps/aioc/dlcgtemp.gd_
2005-08-08 13:59:04 ....A        94747        90383  apps/aioc/dlcgtsfw.dl_
2005-11-23 05:54:40 ....A       206271       196977  apps/aioc/DLCGutil.dl_
2006-01-03 12:53:24 D....            0            0  apps/aioc/ENGLISH
2005-11-23 08:45:42 ....A       337506       324319  apps/aioc/ENGLISH/DLCGactr.dl_
2005-11-23 08:45:38 ....A      1044449       749313  apps/aioc/ENGLISH/DLCGaior.dl_
2005-11-23 08:45:44 ....A        62404        56333  apps/aioc/ENGLISH/DLCGatgr.dl_
2005-11-23 08:45:48 ....A       194315        92533  apps/aioc/ENGLISH/DLCGatwr.dl_
2005-11-23 05:55:34 ....A        37571        35448  apps/aioc/ENGLISH/DLCGjswr.dl_
2005-10-21 10:42:42 ....A       214764       197537  apps/aioc/ENGLISH/DLCGmon.ex_
2005-10-10 09:34:52 ....A         8757         8209  apps/aioc/ENGLISH/dlcgtemp.dl_
2005-07-12 09:27:32 ....A      1124740      1074503  apps/aioc/gdiplus.dl_
2005-06-13 15:57:54 ....A        71874        66596  apps/aioc/iptk.dl_
2004-11-03 04:35:10 ....A        50604        48367  apps/aioc/lfacs13n.dl_
2004-11-03 04:35:10 ....A       121609       110102  apps/aioc/lfafp13n.dl_
2004-11-03 04:35:12 ....A        14241        13843  apps/aioc/lfani13n.dl_
2004-11-03 04:35:12 ....A        11462        11045  apps/aioc/lfavi13n.dl_
2004-11-03 04:35:14 ....A        11927        11594  apps/aioc/lfawd13n.dl_
2004-11-03 04:35:14 ....A        17517        16997  apps/aioc/lfbmp13n.dl_
2004-11-03 04:35:16 ....A        32176        31158  apps/aioc/lfcal13n.dl_
2004-11-03 04:35:16 ....A        51535        49340  apps/aioc/lfcgm13n.dl_
2004-11-03 04:35:18 ....A        16822        16307  apps/aioc/lfclp13n.dl_
2004-11-03 04:35:18 ....A       202867       190354  apps/aioc/lfcmp13n.dl_
2004-11-03 04:35:20 ....A       249353       234715  apps/aioc/lfcmw13n.dl_
2004-11-03 04:35:22 ....A        51277        49100  apps/aioc/lfcmx13n.dl_
2004-11-03 04:35:22 ....A        11453        11056  apps/aioc/lfcut13n.dl_
2004-11-03 04:35:24 ....A        45427        43219  apps/aioc/lfdgn13n.dl_
2004-11-03 04:35:24 ....A        35310        33621  apps/aioc/lfdrw13n.dl_
2004-11-03 04:35:26 ....A       231327       220854  apps/aioc/lfdwf13n.dl_
2004-11-03 04:35:26 ....A        78235        75168  apps/aioc/lfdwg13n.dl_
2004-11-03 04:35:28 ....A       108329       104118  apps/aioc/lfdxf13n.dl_
2004-11-03 04:35:30 ....A        28479        27582  apps/aioc/lfeps13n.dl_
2004-11-03 04:35:30 ....A        28349        26248  apps/aioc/lffax13n.dl_
2004-11-03 04:35:32 ....A        21486        20894  apps/aioc/lfflc13n.dl_
2004-11-03 04:35:32 ....A        45858        44427  apps/aioc/lffpx13n.dl_
2000-04-12 16:24:10 ....A       179949       173669  apps/aioc/lffpx7.dl_
2004-11-03 04:35:34 ....A        62881        60342  apps/aioc/lfgbr13n.dl_
2004-11-03 04:35:34 ....A        28302        27460  apps/aioc/lfgif13n.dl_
2004-11-03 04:35:36 ....A        27644        26841  apps/aioc/lfica13n.dl_
2004-11-03 04:35:36 ....A        16284        15796  apps/aioc/lfiff13n.dl_
2004-11-03 04:35:38 ....A        11516        11166  apps/aioc/lfimg13n.dl_
2004-11-03 04:35:38 ....A        11314        10915  apps/aioc/lfitg13n.dl_
2004-11-03 04:35:40 ....A       144704       138716  apps/aioc/lfj2k13n.dl_
2004-11-03 04:35:40 ....A        48000        46388  apps/aioc/lfjbg13n.dl_
2000-04-12 16:28:12 ....A        65169        63100  apps/aioc/lfkodak.dl_
2004-11-03 04:35:42 ....A        15754        15332  apps/aioc/lflma13n.dl_
2004-11-03 04:35:44 ....A        17579        16983  apps/aioc/lflmb13n.dl_
2004-11-03 04:35:44 ....A        10300         9954  apps/aioc/lfmac13n.dl_
2004-11-03 04:35:44 ....A        60872        59065  apps/aioc/lfmpg13n.dl_
2004-11-03 04:35:46 ....A        10353        10010  apps/aioc/lfmsp13n.dl_
2004-11-03 04:35:48 ....A        10694        10317  apps/aioc/lfpcd13n.dl_
2004-11-03 04:35:48 ....A        76717        73601  apps/aioc/lfpcl13n.dl_
2004-11-03 04:35:50 ....A        38216        36975  apps/aioc/lfpct13n.dl_
2004-11-03 04:35:50 ....A        15172        14661  apps/aioc/lfpcx13n.dl_
2004-11-03 04:35:52 ....A       104237       100608  apps/aioc/lfpdf13n.dl_
2004-11-03 04:35:52 ....A        88335        84713  apps/aioc/lfpng13n.dl_
2004-11-03 04:35:54 ....A        17754        17219  apps/aioc/lfpnm13n.dl_
2004-11-03 04:35:54 ....A        34169        33101  apps/aioc/lfpsd13n.dl_
2004-11-03 04:35:56 ....A        44770        42583  apps/aioc/lfptk13n.dl_
2004-11-03 04:35:56 ....A        11523        11151  apps/aioc/lfras13n.dl_
2004-11-03 04:35:58 ....A         9650         9348  apps/aioc/lfraw13n.dl_
2004-11-03 04:35:58 ....A        39608        37663  apps/aioc/lfsct13n.dl_
2004-11-03 04:36:00 ....A        11341        10983  apps/aioc/lfsgi13n.dl_
2004-11-03 04:36:00 ....A        46317        44200  apps/aioc/lfshp13n.dl_
2002-08-21 11:38:18 ....A        17045        16007  apps/aioc/lfsmp13n.dl_
2004-11-03 04:36:02 ....A       267740       254798  apps/aioc/lfsvg13n.dl_
2004-11-03 04:36:04 ....A        13362        12929  apps/aioc/lftga13n.dl_
2004-11-03 04:36:04 ....A        83904        81198  apps/aioc/lftif13n.dl_
2004-11-03 04:36:06 ....A        16456        15432  apps/aioc/lfvec13n.dl_
2004-11-03 04:36:06 ....A        58543        56201  apps/aioc/lfvpg13n.dl_
2004-11-03 04:36:08 ....A        11186        10798  apps/aioc/lfwfx13n.dl_
2004-11-03 04:36:08 ....A        25167        23891  apps/aioc/lfwmf13n.dl_
2004-11-03 04:36:10 ....A        16523        15429  apps/aioc/lfwmp13n.dl_
2004-11-03 04:36:10 ....A        11327        10970  apps/aioc/lfwpg13n.dl_
2004-11-03 04:36:12 ....A        28038        27133  apps/aioc/lfxbm13n.dl_
2004-11-03 04:36:12 ....A        30400        29379  apps/aioc/lfxpm13n.dl_
2004-11-03 04:36:14 ....A        13784        13311  apps/aioc/lfxwd13n.dl_
2004-11-03 04:36:14 ....A       555838       517030  apps/aioc/ltann13n.dl_
2004-11-03 04:36:16 ....A        62253        59688  apps/aioc/ltaut13n.dl_
2002-08-22 19:29:30 ....A        37686        36251  apps/aioc/ltbar13n.dl_
2004-11-03 04:36:18 ....A      1187942      1063006  apps/aioc/ltclr13n.dl_
2004-11-03 04:36:22 ....A        44977        42872  apps/aioc/ltcon13n.dl_
2001-12-03 16:50:20 ....A       402108       386392  apps/aioc/ltcry13n.dl_
2004-11-03 04:36:22 ....A       443447       422632  apps/aioc/ltdic13n.dl_
2004-11-03 04:36:24 ....A       136989       132552  apps/aioc/ltdis13n.dl_
2004-11-03 04:36:26 ....A       760012       726877  apps/aioc/ltdlg13n.dl_
2004-11-03 04:36:30 ....A        87237        84691  apps/aioc/ltefx13n.dl_
2004-11-03 04:36:32 ....A        84077        81206  apps/aioc/ltfil13n.dl_
2004-11-03 04:36:34 ....A       248839       241085  apps/aioc/ltimg13n.dl_
2004-11-03 04:36:36 ....A        17631        17167  apps/aioc/ltisi13n.dl_
2004-11-03 04:36:38 ....A       246792       234031  apps/aioc/ltkrn13n.dl_
2004-11-03 04:36:38 ....A        30511        29615  apps/aioc/ltlst13n.dl_
2004-11-03 04:36:42 ....A        35376        34221  apps/aioc/ltnet13n.dl_
2004-11-03 04:36:44 ....A        63804        61275  apps/aioc/ltocr13n.dl_
2004-11-03 04:36:48 ....A        30258        28823  apps/aioc/ltpdg13n.dl_
2004-11-03 04:36:50 ....A        85146        81858  apps/aioc/ltpnt13n.dl_
2002-08-21 12:40:44 ....A       384959       366064  apps/aioc/ltrtn13n.dl_
2004-11-03 04:36:52 ....A        80733        77325  apps/aioc/ltscr13n.dl_
2004-11-03 04:36:54 ....A        62064        59610  apps/aioc/ltsgm13n.dl_
2004-11-03 04:36:56 ....A        32965        31232  apps/aioc/lttlb13n.dl_
2001-12-03 16:50:58 ....A        83901        80807  apps/aioc/lttls13n.dl_
2004-11-03 04:36:58 ....A        18485        17888  apps/aioc/lttmb13n.dl_
2004-11-03 04:37:00 ....A        80355        77057  apps/aioc/lttw213n.dl_
2004-11-03 04:37:02 ....A        24848        24095  apps/aioc/lttwn13n.dl_
2004-11-03 04:37:04 ....A        22477        20788  apps/aioc/ltweb13n.dl_
2001-11-19 16:57:04 ....A       342926       322556  apps/aioc/ltwen13n.dl_
2004-11-03 04:37:04 ....A        15879        15398  apps/aioc/ltwnd13n.dl_
2004-11-03 04:37:06 ....A       370294       337088  apps/aioc/ltwvc13n.dl_
2004-11-03 04:37:08 ....A        84535        80633  apps/aioc/lvdlg13n.dl_
2004-11-03 04:37:08 ....A        23830        22520  apps/aioc/lvdx13n.dl_
2004-11-03 04:37:10 ....A        25753        24398  apps/aioc/lvgl13n.dl_
2004-11-03 04:37:10 ....A       144875       138960  apps/aioc/lvkrn13n.dl_
2005-07-12 09:48:02 ....A       576823       552393  apps/aioc/mfc42.dl_
2000-05-02 04:17:00 ....A        99560        96849  apps/aioc/pcdlib32.dl_
2005-07-12 09:48:02 ....A       263400       243370  apps/aioc/pdflib.dl_
2005-07-12 09:48:46 ....A         1024          311  apps/aioc/scancore.ini
2006-01-03 12:53:02 D....            0            0  apps/PrntToFx
2006-01-03 12:53:02 D....            0            0  apps/PrntToFx/BVRP
2006-01-03 12:53:24 D....            0            0  apps/PrntToFx/BVRP/ENGLISH
2005-08-04 13:52:10 ....A      1853736      1852886  apps/PrntToFx/BVRP/ENGLISH/data1.cab
2005-08-04 13:52:10 ....A        18475         6678  apps/PrntToFx/BVRP/ENGLISH/data1.hdr
2005-08-04 13:52:10 ....A      1935727      1932642  apps/PrntToFx/BVRP/ENGLISH/data2.cab
2005-05-12 15:19:42 ....A       344923       329505  apps/PrntToFx/BVRP/ENGLISH/ikernel.ex_
2005-08-04 13:52:10 ....A          435          129  apps/PrntToFx/BVRP/ENGLISH/layout.bin
2005-05-12 15:19:42 ....A        49980         3705  apps/PrntToFx/BVRP/ENGLISH/Setup.bmp
2005-05-19 14:12:08 ....A        58115        27589  apps/PrntToFx/BVRP/ENGLISH/Setup.exe
2005-08-04 13:52:10 ....A       246025        63263  apps/PrntToFx/BVRP/ENGLISH/Setup.inx
2005-05-12 15:19:42 ....A         1192          378  apps/PrntToFx/BVRP/ENGLISH/Setup.iss
2005-05-12 15:19:42 ....A        42370         1441  apps/PrntToFx/BVRP/ENGLISH/Titlebit.bmp
2006-01-03 12:53:02 D....            0            0  apps/PrntToFx/ENGLISH
2005-07-14 14:52:52 ....A       270336       125930  apps/setup.exe
2005-12-08 16:51:06 ....A          181          104  apps/setup.ini
2006-01-03 12:53:02 ....A         1001          382  dlcgEN.vbs
2006-01-03 12:53:02 D....            0            0  drivers
2006-01-03 12:53:14 D....            0            0  drivers/scan
2005-12-14 23:41:52 ....A         9139         5141  drivers/scan/DLCG.cat
2005-08-26 14:44:00 ....A        27820        25952  drivers/scan/dlcgcfg.dl_
2005-07-05 09:32:24 ....A        34403        32839  drivers/scan/dlcgcnv4.dl_
2005-10-21 10:38:42 ....A       177721       171933  drivers/scan/DLCGdrs.dl_
2005-11-02 12:28:44 ....A        87178        82939  drivers/scan/DLCGhwdf.dl_
2005-10-10 10:27:30 ....A         2184          989  drivers/scan/DLCGprod.ini
2005-12-08 16:51:02 ....A         3102         1072  drivers/scan/DLCGscxp.inf
2005-10-21 10:38:44 ....A       102400        43054  drivers/scan/DLCGtwds.ds
2006-01-03 12:53:08 D....            0            0  drivers/win_xp2k
2006-01-03 12:53:08 D....            0            0  drivers/win_xp2k/common
2005-12-08 16:51:24 ....A         1186          438  drivers/win_xp2k/common/DLCG.loc
2005-10-19 13:52:48 ....A      1062289      1017213  drivers/win_xp2k/common/dlcgclr1.lu_
2005-10-19 13:52:50 ....A      1062289      1017213  drivers/win_xp2k/common/dlcgclr2.lu_
2005-10-19 13:52:52 ....A      1077269      1031222  drivers/win_xp2k/common/dlcgclr3.lu_
2005-09-14 14:03:48 ....A       199001       190420  drivers/win_xp2k/common/DLCGclr4.lu_
2005-11-23 05:44:42 ....A        51298        34821  drivers/win_xp2k/common/dlcgsk0.dl_
2005-08-24 10:48:38 ....A        57302        50024  drivers/win_xp2k/common/dlcgsk1.dl_
2005-08-24 10:48:38 ....A        95844        88914  drivers/win_xp2k/common/dlcgsk2.dl_
2006-01-03 12:53:08 D....            0            0  drivers/win_xp2k/common/ENGLISH
2005-10-18 17:02:20 ....A         7142         6836  drivers/win_xp2k/common/ENGLISH/dlcgceip.hl_
2005-12-08 16:01:16 ....A       102930        94096  drivers/win_xp2k/common/ENGLISH/dlcgdpp.hl_
2005-07-13 15:52:06 ....A         7165         2877  drivers/win_xp2k/common/ENGLISH/DLCGeula.txt
2005-11-04 13:55:08 ....A         3365         3223  drivers/win_xp2k/common/ENGLISH/dlcghelp.cn_
2005-11-29 14:37:16 ....A       447380       432353  drivers/win_xp2k/common/ENGLISH/dlcghelp.hl_
2005-07-13 15:52:14 ....A         4397         4192  drivers/win_xp2k/common/ENGLISH/dlcgrme.do_
2005-08-24 10:48:42 ....A       341096       325988  drivers/win_xp2k/common/ENGLISH/wavs.ex_
2005-07-11 15:39:34 ....A        11340        10735  drivers/win_xp2k/common/lexgo.ex_
2005-12-14 23:41:52 ....A       142843        24486  drivers/win_xp2k/dlcgcdrv.cat
2005-12-23 03:11:48 ....A       137883        24329  drivers/win_xp2k/dlcgdr64.cat
2005-12-08 16:51:04 ....A        12669         3464  drivers/win_xp2k/DLCGprc.inf
2005-12-08 16:45:28 ....A           26           26  drivers/win_xp2k/dlcgprod.ver
2006-01-03 12:53:14 D....            0            0  drivers/win_xp2k/i386
2005-08-26 14:44:00 ....A        65536        20446  drivers/win_xp2k/i386/DLCGcfg.dll
2005-10-28 07:43:08 ....A       213477       204058  drivers/win_xp2k/i386/dlcgcfg.ex_
2005-10-28 07:41:24 ....A       355344       340421  drivers/win_xp2k/i386/dlcgcomc.dl_
2005-10-28 07:43:16 ....A       231322       221323  drivers/win_xp2k/i386/dlcgcomm.dl_
2005-10-28 07:41:52 ....A       260403       249545  drivers/win_xp2k/i386/dlcgcoms.ex_
2005-10-28 16:38:24 ....A       219224       209472  drivers/win_xp2k/i386/DLCGcomx.dl_
2005-11-23 05:55:02 ....A        32467        31336  drivers/win_xp2k/i386/DLCGcu.dl_
2005-11-23 05:55:06 ....A        22162        18412  drivers/win_xp2k/i386/DLCGcub.dl_
2005-11-22 07:50:08 ....A        65459        63580  drivers/win_xp2k/i386/DLCGdr5c.dl_
2005-07-11 09:36:32 ....A        62061        59095  drivers/win_xp2k/i386/dlcgdrec.dl_
2005-09-29 10:03:00 ....A        61069        57988  drivers/win_xp2k/i386/DLCGflib.dl_
2005-08-24 10:48:36 ....A       559059       534942  drivers/win_xp2k/i386/DLCGgf.dl_
2005-10-28 07:35:48 ....A       391463       373069  drivers/win_xp2k/i386/dlcghbn3.dl_
2005-09-29 10:03:00 ....A       327572       312991  drivers/win_xp2k/i386/dlcghpec.dl_
2005-09-29 10:03:02 ....A       233388       217816  drivers/win_xp2k/i386/dlcghpeh.dl_
2005-09-29 10:03:04 ....A        65740        62392  drivers/win_xp2k/i386/dlcghpep.dl_
2005-11-02 12:28:44 ....A        87178        82939  drivers/win_xp2k/i386/DLCGhwdf.dl_
2005-10-28 07:42:14 ....A       215156       206202  drivers/win_xp2k/i386/dlcgih.ex_
2005-11-23 05:55:00 ....A        71873        68768  drivers/win_xp2k/i386/DLCGins.dl_
2005-11-23 05:55:06 ....A        51590        43525  drivers/win_xp2k/i386/DLCGinsb.dl_
2005-11-23 05:54:44 ....A        59496        57489  drivers/win_xp2k/i386/dlcgjsw.dl_
2005-11-23 05:55:10 ....A       275918       254988  drivers/win_xp2k/i386/DLCGjswb.dl_
2005-10-28 17:37:50 ....A        42171        40427  drivers/win_xp2k/i386/dlcgjswx.ex_
2005-10-28 07:43:34 ....A       274379       261679  drivers/win_xp2k/i386/dlcglmpm.dl_
2005-11-23 05:54:56 ....A       491476       470836  drivers/win_xp2k/i386/DLCGlpa.dl_
2005-11-23 05:55:16 ....A      1512979      1199750  drivers/win_xp2k/i386/DLCGlpab.dl_
2005-11-22 07:50:10 ....A         1398         1343  drivers/win_xp2k/i386/DLCGpcfg.dl_
2005-10-28 07:46:42 ....A       351224       334374  drivers/win_xp2k/i386/dlcgpmui.dl_
2005-11-22 07:50:12 ....A        36793        35585  drivers/win_xp2k/i386/DLCGpp5c.dl_
2005-10-28 07:42:00 ....A        69659        66759  drivers/win_xp2k/i386/dlcgpplc.dl_
2005-10-28 07:42:06 ....A       187204       179242  drivers/win_xp2k/i386/dlcgppls.ex_
2005-10-28 17:37:46 ....A       191722       183282  drivers/win_xp2k/i386/DLCGppx.dl_
2005-10-10 10:27:30 ....A         2184          989  drivers/win_xp2k/i386/DLCGprod.ini
2005-10-28 07:40:58 ....A        55063        51776  drivers/win_xp2k/i386/dlcgprox.dl_
2005-11-23 05:54:52 ....A       359403       345435  drivers/win_xp2k/i386/DLCGprp.dl_
2005-11-23 05:55:22 ....A      1314707      1104736  drivers/win_xp2k/i386/DLCGprpb.dl_
2005-11-23 05:54:48 ....A       161958       155671  drivers/win_xp2k/i386/DLCGpsw.dl_
2005-11-23 05:55:26 ....A       251001       220399  drivers/win_xp2k/i386/DLCGpswb.dl_
2005-10-28 17:38:12 ....A        98957        95651  drivers/win_xp2k/i386/DLCGpswx.ex_
2005-09-08 13:56:20 ....A       122880       112722  drivers/win_xp2k/i386/DLCGretv.dl_
2005-10-28 07:46:00 ....A       582436       554245  drivers/win_xp2k/i386/dlcgserv.dl_
2005-09-08 13:56:42 ....A        28876        27766  drivers/win_xp2k/i386/DLCGserv.ex_
2005-09-08 13:56:26 ....A        36397        34537  drivers/win_xp2k/i386/DLCGtime.dl_
2005-09-08 13:56:48 ....A        26066        24435  drivers/win_xp2k/i386/DLCGtime.ex_
2005-08-08 13:59:04 ....A        94747        90383  drivers/win_xp2k/i386/dlcgtsfw.dl_
2005-11-22 07:50:22 ....A        33887        32895  drivers/win_xp2k/i386/DLCGui5c.dl_
2005-09-08 13:56:34 ....A       132727       122287  drivers/win_xp2k/i386/DLCGuldr.dl_
2005-11-02 12:28:36 ....A       192512        83593  drivers/win_xp2k/i386/DLCGunst.exe
2005-11-23 05:55:02 ....A        26823        25754  drivers/win_xp2k/i386/DLCGupd.dl_
2005-11-23 05:55:30 ....A        33314        29274  drivers/win_xp2k/i386/DLCGupdb.dl_
2005-09-08 13:56:48 ....A        25688        23865  drivers/win_xp2k/i386/DLCGupld.ex_
2005-10-28 07:37:48 ....A       557493       529244  drivers/win_xp2k/i386/dlcgusb1.dl_
2005-11-23 05:54:40 ....A       206271       196977  drivers/win_xp2k/i386/DLCGutil.dl_
2005-09-08 13:56:44 ....A        26077        24436  drivers/win_xp2k/i386/DLCGview.ex_
2005-07-28 13:47:14 ....A        19157        17858  drivers/win_xp2k/i386/DLCGvs.dl_
2006-01-03 12:53:14 D....            0            0  drivers/win_xp2k/i386/ENGLISH
2005-11-23 05:55:48 ....A        10084         9396  drivers/win_xp2k/i386/ENGLISH/DLCGcur.dl_
2005-11-23 05:55:48 ....A        26030        24186  drivers/win_xp2k/i386/ENGLISH/DLCGinsr.dl_
2005-11-23 05:55:34 ....A        37571        35448  drivers/win_xp2k/i386/ENGLISH/DLCGjswr.dl_
2005-11-23 05:55:38 ....A        73162        70037  drivers/win_xp2k/i386/ENGLISH/DLCGlpar.dl_
2005-11-23 05:55:46 ....A        45732        43927  drivers/win_xp2k/i386/ENGLISH/DLCGprpr.dl_
2005-11-23 05:55:42 ....A        22600        20849  drivers/win_xp2k/i386/ENGLISH/DLCGpswr.dl_
2005-11-22 07:50:40 ....A        52551        43019  drivers/win_xp2k/i386/ENGLISH/DLCGstrn.dl_
2005-11-23 05:55:48 ....A        20732        17828  drivers/win_xp2k/i386/ENGLISH/DLCGupdr.dl_
2005-11-21 02:37:42 ....A       248615       237719  drivers/win_xp2k/i386/lexedf.dl_
2006-01-03 12:53:26 D....            0            0  fax
2006-01-03 12:53:02 D....            0            0  fax/ENGLISH
2006-01-03 12:53:26 D....            0            0  fax/msfax
2005-03-21 11:20:14 ....A        49152        23064  fax/msfax/setup.exe
2005-07-14 14:52:52 ....A       270336       125930  fax/setup.exe
2005-12-08 16:51:10 ....A          176          103  fax/Setup.ini
2006-01-03 12:53:04 D....            0            0  install
2005-12-08 16:51:18 ....A           93           59  install/appinst.isf
2005-10-04 08:32:10 ....A          164          126  install/BEUnst.isf
2006-01-03 12:53:06 D....            0            0  install/config
2005-07-14 14:52:48 ....A         9054         1487  install/config/aioc.cif
2005-07-14 14:52:48 ....A          394          277  install/config/appinst.cif
2005-07-14 14:52:48 ....A          532          351  install/config/bvrp.cif
2006-01-03 12:53:06 D....            0            0  install/config/image
2005-07-14 14:52:58 ....A          222           77  install/config/image/arrow.bmp
2005-09-15 10:22:40 ....A        10707         4648  install/config/image/bkground.jpg
2005-09-15 10:22:40 ....A         8415         4546  install/config/image/bkRTL.jpg
2005-07-14 14:53:42 ....A       106962          292  install/config/image/bottom.bmp
2005-07-14 14:53:42 ....A       106964          514  install/config/image/bottrtl.bmp
2005-07-14 14:53:42 ....A         1386          590  install/config/image/browse.ico
2005-07-14 14:52:58 ....A          512          113  install/config/image/cs.bmp
2005-07-14 14:52:58 ....A          512           98  install/config/image/da.bmp
2005-07-14 14:52:58 ....A          512          102  install/config/image/de.bmp
2005-07-14 14:53:42 ....A         1310           43  install/config/image/divider.bmp
2005-07-14 14:52:58 ....A          512          105  install/config/image/el.bmp
2005-07-14 14:52:58 ....A          512           96  install/config/image/en.bmp
2005-07-14 14:52:58 ....A          512          101  install/config/image/es.bmp
2005-07-14 14:52:58 ....A          512           84  install/config/image/fi.bmp
2005-07-14 14:53:42 ....A         6678          474  install/config/image/folder.bmp
2005-07-14 14:52:58 ....A          512          102  install/config/image/fr.bmp
2005-07-14 14:52:58 ....A          512           80  install/config/image/it.bmp
2005-07-14 14:52:58 ....A          512          174  install/config/image/ja.bmp
2005-07-14 14:52:58 ....A          512          156  install/config/image/ko.bmp
2005-07-14 14:53:42 ....A       127638         6718  install/config/image/left.bmp
2005-07-14 14:52:58 ....A          512          121  install/config/image/nl.bmp
2005-07-14 14:52:58 ....A          512           91  install/config/image/no.bmp
2005-07-14 14:52:58 ....A          512           93  install/config/image/pl.bmp
2005-10-10 10:47:16 ....A         7230          619  install/config/image/prodkey.bmp
2005-07-14 14:52:58 ....A          512          170  install/config/image/pt_br.bmp
2005-07-14 14:52:58 ....A          512          166  install/config/image/ru.bmp
2005-07-14 14:53:42 ....A       199734        51476  install/config/image/sideimg.bmp
2005-07-14 14:52:58 ....A          512          105  install/config/image/sv.bmp
2005-07-14 14:52:58 ....A          510          109  install/config/image/tr.bmp
2005-07-14 14:52:58 ....A          512          259  install/config/image/zh.bmp
2005-12-08 16:51:20 ....A          487          202  install/config/install.map
2005-07-14 14:52:48 ....A         3009          609  install/config/leadtool.cif
2005-08-18 08:46:04 ....A         6486         1125  install/config/main.cgf
2005-09-14 11:32:18 ....A         4313         1006  install/config/main.xml
2005-07-14 14:52:48 ....A         3736          826  install/config/mcm.cif
2005-10-14 14:27:16 ....A          576          360  install/config/msfax.cif
2006-01-03 12:53:06 D....            0            0  install/config/nls
2005-12-08 16:51:12 ....A          827          467  install/config/nls/common.nls
2005-07-14 14:52:44 ....A        11710         3847  install/config/nls/en.nls
2005-07-14 14:52:44 ....A          356          225  install/config/nls/langconv.ini
2005-12-08 16:51:14 ....A          387          243  install/config/nls/oem.nls
2005-07-14 14:52:46 ....A         2049          674  install/config/ocr.cif
2005-07-14 14:52:46 ....A         3234          845  install/config/photoed.cif
2005-12-08 16:51:14 ....A          193          138  install/config/Product.ini
2005-07-14 14:52:58 ....A         1881          692  install/config/uninst.cgf
2005-11-09 04:27:18 ....A         4593         1310  install/config/uninst.cif
2005-07-14 14:52:46 ....A           47           40  install/config/uninst.ini
2005-07-14 14:52:58 ....A         3894          988  install/config/uninst.xml
2005-08-04 13:43:12 ....A         3649          712  install/config/uninstlr.cif
2005-07-14 14:52:46 ....A         4512         1191  install/config/vendor.cif
2005-11-02 12:29:00 ....A       159744        70914  install/DLCGadv.exe
2005-08-26 14:44:00 ....A        65536        20446  install/DLCGcfg.dll
2005-11-02 12:28:22 ....A       139264        60863  install/DLCGfire.exe
2005-08-24 10:48:36 ....A       983092       453942  install/DLCGgf.dll
2005-11-23 05:55:00 ....A       155648        53558  install/DLCGins.dll
2005-11-23 05:55:06 ....A       176128        28928  install/DLCGinsb.dll
2005-11-02 12:28:28 ....A       221184        92054  install/DLCGinst.exe
2006-01-03 12:45:42 ....A         2184          989  install/DLCGprod.ini
2005-11-02 12:28:36 ....A       192512        83593  install/DLCGunst.exe
2005-11-23 05:54:40 ....A       430080       162187  install/DLCGutil.dll
2006-01-03 12:53:04 D....            0            0  install/ENGLISH
2005-10-18 17:02:20 ....A        23251         4775  install/ENGLISH/DLCGceip.hlp
2005-12-08 16:01:16 ....A       256081        48621  install/ENGLISH/DLCGdpp.hlp
2005-07-13 15:52:06 ....A         7165         2877  install/ENGLISH/DLCGeula.txt
2005-11-23 05:55:48 ....A       106496        15070  install/ENGLISH/DLCGinsr.dll
2005-11-23 05:55:34 ....A       131072        26513  install/ENGLISH/DLCGjswr.dll
2005-07-14 14:52:42 ....A           26           23  install/msfax.isf
2005-07-14 14:52:42 ....A           22           21  install/ocr.isf
2006-01-03 12:53:02 ....A           37           30  install/vendor.isf
2006-01-03 12:53:06 D....            0            0  install/x86
2005-10-24 10:42:22 ....A      1159168       488359  install/x86/engine.dll
2005-10-24 10:42:22 ....A      2654208      1143667  install/x86/instgui.exe
2005-07-14 14:52:48 ....A       339968       154456  install/x86/lexlog.dll
2005-07-14 14:52:52 ....A       246424       110495  install/x86/unicows.dll
2005-10-24 10:42:22 ....A      2605056      1123807  install/x86/uninst.exe
2006-01-03 12:53:26 D....            0            0  pubs
2004-11-05 10:43:04 ....A         1329          280  pubs/DLCGdefs.xml
2005-10-04 10:29:26 ....A         4453         1718  pubs/DLCGtele.ini
2006-01-03 12:53:26 D....            0            0  pubs/ENGLISH
2005-11-16 16:33:10 ....A       953044       946071  pubs/ENGLISH/DLCGuser.chm
2005-07-14 14:52:52 ....A       270336       125930  setup.exe
2005-08-12 11:55:20 ....A          111           64  setup.ini
------------------- ----- ------------ ------------  ------------------------
                              51297292     41017926  324 files, 25 folders
Backup Download Server
Driver Summary
Dell All-in-One Printer 810 Driver v.GC 3B A00 Windows 2000/XP. Initial Release.
Driver Support Models
The driver can be applied to the following product models:
The Related Drivers